createdAt,value
2022-08-05T00:01:35.455Z,53.46
2022-08-05T00:04:05.202Z,53.55
2022-08-05T00:06:36.472Z,53.35
2022-08-05T00:09:14.786Z,53.30
2022-08-05T00:11:48.764Z,53.45
2022-08-05T00:14:27.632Z,53.50
2022-08-05T00:16:57.452Z,53.54
2022-08-05T00:19:33.684Z,53.73
2022-08-05T00:22:11.294Z,53.61
2022-08-05T00:24:42.194Z,53.68
2022-08-05T00:27:14.061Z,53.73
2022-08-05T00:29:45.131Z,53.83
2022-08-05T00:32:14.947Z,53.85
2022-08-05T00:35:04.312Z,53.83
2022-08-05T00:37:50.650Z,53.92
2022-08-05T00:40:27.865Z,53.98
2022-08-05T00:43:00.008Z,54.05
2022-08-05T00:45:38.801Z,54.06
2022-08-05T00:48:13.388Z,54.14
2022-08-05T00:50:44.233Z,54.17
2022-08-05T00:53:45.050Z,54.20
2022-08-05T00:56:05.527Z,54.61
2022-08-05T00:58:36.828Z,54.63
2022-08-05T01:01:08.534Z,54.50
2022-08-05T01:03:38.666Z,54.64
2022-08-05T01:06:14.164Z,54.67
2022-08-05T01:08:44.610Z,54.87
2022-08-05T01:11:37.282Z,54.80
2022-08-05T01:14:34.750Z,54.88
2022-08-05T01:17:09.007Z,55.02
2022-08-05T01:20:00.962Z,55.13
2022-08-05T01:22:47.008Z,55.28
2022-08-05T01:25:39.663Z,55.29
2022-08-05T01:28:41.027Z,55.43
2022-08-05T01:31:28.062Z,55.46
2022-08-05T01:34:08.435Z,55.52
2022-08-05T01:36:47.046Z,55.61
2022-08-05T01:39:47.169Z,55.69
2022-08-05T01:42:09.719Z,55.75
2022-08-05T01:44:39.240Z,55.76
2022-08-05T01:47:10.622Z,55.86
2022-08-05T01:50:00.413Z,55.92
2022-08-05T01:52:32.375Z,56.05
2022-08-05T01:55:05.492Z,56.13
2022-08-05T01:58:29.847Z,56.26
2022-08-05T02:00:30.489Z,56.38
2022-08-05T02:03:04.285Z,56.35
2022-08-05T02:05:36.563Z,56.40
2022-08-05T02:08:05.560Z,56.49
2022-08-05T02:10:44.661Z,56.58
2022-08-05T02:13:21.039Z,56.64
2022-08-05T02:16:22.103Z,56.67
2022-08-05T02:18:56.609Z,56.78
2022-08-05T02:21:52.565Z,56.97
2022-08-05T02:24:26.808Z,57.05
2022-08-05T02:26:58.191Z,57.07
2022-08-05T02:29:59.703Z,57.28
2022-08-05T02:32:24.064Z,57.44
2022-08-05T02:35:02.024Z,57.52
2022-08-05T02:37:47.623Z,57.66
2022-08-05T02:40:24.351Z,57.86
2022-08-05T02:42:55.544Z,57.86
2022-08-05T02:45:25.414Z,57.93
2022-08-05T02:48:07.357Z,58.18
2022-08-05T02:50:47.030Z,58.28
2022-08-05T02:53:19.418Z,58.38
2022-08-05T02:55:59.537Z,58.55
2022-08-05T02:58:30.292Z,58.71
2022-08-05T03:01:02.269Z,58.67
2022-08-05T03:03:34.086Z,58.96
2022-08-05T03:06:55.444Z,59.14
2022-08-05T03:09:12.531Z,59.29
2022-08-05T03:11:54.822Z,59.46
2022-08-05T03:14:25.421Z,59.47
2022-08-05T03:16:54.169Z,59.50
2022-08-05T03:19:33.993Z,59.58
2022-08-05T03:22:05.093Z,59.73
2022-08-05T03:24:47.193Z,59.90
2022-08-05T03:27:20.682Z,60.03
2022-08-05T03:30:08.191Z,60.08
2022-08-05T03:32:37.698Z,60.28
2022-08-05T03:35:06.144Z,60.07
2022-08-05T03:37:41.009Z,60.39
2022-08-05T03:40:15.488Z,60.31
2022-08-05T03:42:53.076Z,60.45
2022-08-05T03:45:23.250Z,60.35
2022-08-05T03:47:51.841Z,60.48
2022-08-05T03:50:28.714Z,60.49
2022-08-05T03:55:49.952Z,60.56
2022-08-05T03:56:11.591Z,60.63
2022-08-05T03:58:47.001Z,60.66
2022-08-05T04:01:20.920Z,60.76
2022-08-05T04:04:08.845Z,60.67
2022-08-05T04:06:47.867Z,60.71
2022-08-05T04:09:25.803Z,60.75
2022-08-05T04:11:56.526Z,60.69
2022-08-05T04:14:30.356Z,60.77
2022-08-05T04:17:00.709Z,60.95
2022-08-05T04:19:29.422Z,60.88
2022-08-05T04:22:09.917Z,60.95
2022-08-05T04:24:43.789Z,60.87
2022-08-05T04:27:13.969Z,60.98
2022-08-05T04:29:43.150Z,61.06
2022-08-05T04:32:10.763Z,61.00
2022-08-05T04:34:42.608Z,61.06
2022-08-05T04:37:11.256Z,61.10
2022-08-05T04:39:39.235Z,61.15
2022-08-05T04:42:09.138Z,61.05
2022-08-05T04:44:36.968Z,61.28
2022-08-05T04:47:08.907Z,61.30
2022-08-05T04:50:01.474Z,61.33
2022-08-05T04:52:28.205Z,61.27
2022-08-05T04:54:57.303Z,61.25
2022-08-05T04:57:28.980Z,61.25
2022-08-05T04:59:58.660Z,61.27
2022-08-05T05:02:36.305Z,61.27
2022-08-05T05:05:17.038Z,61.24
2022-08-05T05:08:01.540Z,61.30
2022-08-05T05:10:33.284Z,61.28
2022-08-05T05:13:04.018Z,61.40
2022-08-05T05:15:57.059Z,61.29
2022-08-05T05:18:31.405Z,61.31
2022-08-05T05:21:03.561Z,61.26
2022-08-05T05:23:39.367Z,61.24
2022-08-05T05:26:19.697Z,61.22
2022-08-05T05:28:56.997Z,61.32
2022-08-05T05:31:25.201Z,61.20
2022-08-05T05:34:02.162Z,61.31
2022-08-05T05:36:31.698Z,61.12
2022-08-05T05:38:59.517Z,61.21
2022-08-05T05:41:40.732Z,61.07
2022-08-05T05:44:35.817Z,61.24
2022-08-05T05:46:58.402Z,61.26
2022-08-05T05:49:33.075Z,61.22
2022-08-05T05:52:01.331Z,61.12
2022-08-05T05:54:35.040Z,61.11
2022-08-05T05:57:19.768Z,61.12
2022-08-05T05:59:48.782Z,60.95
2022-08-05T06:02:17.173Z,60.85
2022-08-05T06:05:00.343Z,60.85
2022-08-05T06:07:41.264Z,60.92
2022-08-05T06:10:11.221Z,60.74
2022-08-05T06:12:42.247Z,60.65
2022-08-05T06:15:23.537Z,60.65
2022-08-05T06:17:53.315Z,60.64
2022-08-05T06:20:21.900Z,60.57
2022-08-05T06:22:49.939Z,60.53
2022-08-05T06:25:25.322Z,60.51
2022-08-05T06:28:12.351Z,60.36
2022-08-05T06:30:49.233Z,60.22
2022-08-05T06:33:19.053Z,60.36
2022-08-05T06:36:03.841Z,60.28
2022-08-05T06:38:36.399Z,60.34
2022-08-05T06:41:07.893Z,60.23
2022-08-05T06:43:57.412Z,60.16
2022-08-05T06:46:29.747Z,60.00
2022-08-05T06:49:00.844Z,59.91
2022-08-05T06:51:30.998Z,59.91
2022-08-05T06:54:01.654Z,60.00
2022-08-05T06:56:34.290Z,59.84
2022-08-05T06:59:09.422Z,59.83
2022-08-05T07:01:40.883Z,59.69
2022-08-05T07:04:10.767Z,59.66
2022-08-05T07:06:42.299Z,59.53
2022-08-05T07:09:09.890Z,59.28
2022-08-05T07:11:39.791Z,59.29
2022-08-05T07:14:29.395Z,59.25
2022-08-05T07:17:59.398Z,58.97
2022-08-05T07:20:32.106Z,58.80
2022-08-05T07:22:38.830Z,58.86
2022-08-05T07:25:24.010Z,58.71
2022-08-05T07:28:02.353Z,58.54
2022-08-05T07:30:39.126Z,58.49
2022-08-05T07:33:15.776Z,58.28
2022-08-05T07:36:03.138Z,58.31
2022-08-05T07:38:43.758Z,58.16
2022-08-05T07:42:14.418Z,57.98
2022-08-05T07:44:14.312Z,57.85
2022-08-05T07:46:49.400Z,57.85
2022-08-05T07:49:19.103Z,57.70
2022-08-05T07:51:54.056Z,57.58
2022-08-05T07:54:30.903Z,57.48
2022-08-05T07:57:17.575Z,57.43
2022-08-05T07:59:52.318Z,57.28
2022-08-05T08:02:30.840Z,57.07
2022-08-05T08:05:00.421Z,56.85
2022-08-05T08:07:29.192Z,56.58
2022-08-05T08:10:07.920Z,56.31
2022-08-05T08:12:49.387Z,56.46
2022-08-05T08:15:17.740Z,56.52
2022-08-05T08:18:09.731Z,56.13
2022-08-05T08:21:00.568Z,56.06
2022-08-05T08:24:01.606Z,56.05
2022-08-05T08:26:29.403Z,55.85
2022-08-05T08:29:09.803Z,55.44
2022-08-05T08:31:48.406Z,55.21
2022-08-05T08:34:30.178Z,55.02
2022-08-05T08:37:04.607Z,54.92
2022-08-05T08:39:37.238Z,54.70
2022-08-05T08:42:32.381Z,54.30
2022-08-05T08:45:24.264Z,54.54
2022-08-05T08:48:12.752Z,54.18
2022-08-05T08:51:04.084Z,53.69
2022-08-05T08:53:28.966Z,53.77
2022-08-05T08:56:03.141Z,53.39
2022-08-05T08:58:37.104Z,53.30
2022-08-05T09:01:16.728Z,53.16
2022-08-05T09:03:57.610Z,52.73
2022-08-05T09:06:29.849Z,52.36
2022-08-05T09:09:00.542Z,52.43
2022-08-05T09:11:51.394Z,52.12
2022-08-05T09:14:56.546Z,51.93
2022-08-05T09:17:41.021Z,51.37
2022-08-05T09:20:02.881Z,51.00
2022-08-05T09:23:08.937Z,50.86
2022-08-05T09:26:02.755Z,50.35
2022-08-05T09:28:32.112Z,50.34
2022-08-05T09:31:22.458Z,50.13
2022-08-05T09:33:58.437Z,49.17
2022-08-05T09:36:56.268Z,49.38
2022-08-05T09:39:45.215Z,49.55
2022-08-05T09:42:27.704Z,49.54
2022-08-05T09:45:03.282Z,48.94
2022-08-05T09:47:55.351Z,48.27
2022-08-05T09:50:38.927Z,47.99
2022-08-05T09:53:22.721Z,48.14
2022-08-05T09:56:11.417Z,47.71
2022-08-05T09:58:41.650Z,47.59
2022-08-05T10:01:15.197Z,47.34
2022-08-05T10:04:10.711Z,47.02
2022-08-05T10:06:40.620Z,46.98
2022-08-05T10:09:27.418Z,46.53
2022-08-05T10:12:18.459Z,45.90
2022-08-05T10:15:16.296Z,46.05
2022-08-05T10:18:03.380Z,45.79
2022-08-05T10:20:33.672Z,45.70
2022-08-05T10:23:01.927Z,45.58
2022-08-05T10:25:31.182Z,45.30
2022-08-05T10:28:13.339Z,45.54
2022-08-05T10:32:52.142Z,45.43
2022-08-05T10:33:36.119Z,45.33
2022-08-05T10:36:05.895Z,45.36
2022-08-05T10:38:35.672Z,44.97
2022-08-05T10:41:29.050Z,44.88
2022-08-05T10:44:20.199Z,44.80
2022-08-05T10:46:54.265Z,44.38
2022-08-05T10:49:26.845Z,44.08
2022-08-05T10:52:02.611Z,44.05
2022-08-05T10:54:56.176Z,44.33
2022-08-05T10:57:31.877Z,44.05
2022-08-05T11:00:22.845Z,44.05
2022-08-05T11:03:23.260Z,43.77
2022-08-05T11:06:15.344Z,43.57
2022-08-05T11:09:16.733Z,43.43
2022-08-05T11:11:52.611Z,43.42
2022-08-05T11:14:57.667Z,43.35
2022-08-05T11:17:57.515Z,42.98
2022-08-05T11:20:34.358Z,42.38
2022-08-05T11:24:03.091Z,42.78
2022-08-05T11:26:28.670Z,42.69
2022-08-05T11:29:11.841Z,42.62
2022-08-05T11:31:56.338Z,42.41
2022-08-05T11:34:50.919Z,42.38
2022-08-05T11:38:29.639Z,42.14
2022-08-05T11:41:03.618Z,41.88
2022-08-05T11:44:07.442Z,41.36
2022-08-05T11:46:58.241Z,41.33
2022-08-05T11:49:38.115Z,41.15
2022-08-05T11:52:08.643Z,41.21
2022-08-05T11:54:41.453Z,40.76
2022-08-05T11:57:26.077Z,40.80
2022-08-05T11:59:55.723Z,40.79
2022-08-05T12:02:31.511Z,40.41
2022-08-05T12:05:07.189Z,40.22
2022-08-05T12:08:08.296Z,40.17
2022-08-05T12:10:43.053Z,40.33
2022-08-05T12:13:28.042Z,39.74
2022-08-05T12:16:14.652Z,39.71
2022-08-05T12:18:49.062Z,39.65
2022-08-05T12:21:31.861Z,39.38
2022-08-05T12:24:06.892Z,39.21
2022-08-05T12:26:47.349Z,38.82
2022-08-05T12:29:17.853Z,38.61
2022-08-05T12:31:54.498Z,38.41
2022-08-05T12:34:28.869Z,37.90
2022-08-05T12:37:07.384Z,37.40
2022-08-05T12:39:38.775Z,37.06
2022-08-05T12:42:16.957Z,36.02
2022-08-05T12:44:47.623Z,35.98
2022-08-05T12:47:32.812Z,35.59
2022-08-05T12:50:14.208Z,34.29
2022-08-05T12:52:42.894Z,33.19
2022-08-05T12:55:28.323Z,33.31
2022-08-05T12:58:38.175Z,32.06
2022-08-05T13:02:04.061Z,31.72
2022-08-05T13:03:41.511Z,31.63
2022-08-05T13:06:16.033Z,30.16
2022-08-05T13:08:50.818Z,29.68
2022-08-05T13:12:01.829Z,28.71
2022-08-05T13:14:36.454Z,27.94
2022-08-05T13:17:41.701Z,27.66
2022-08-05T13:20:16.528Z,26.64
2022-08-05T13:22:49.478Z,25.27
2022-08-05T13:25:22.249Z,24.55
2022-08-05T13:28:06.716Z,24.23
2022-08-05T13:30:39.109Z,23.72
2022-08-05T13:33:07.364Z,22.81
2022-08-05T13:35:42.756Z,22.74
2022-08-05T13:38:20.247Z,22.12
2022-08-05T13:41:00.269Z,22.31
2022-08-05T13:43:44.246Z,22.18
2022-08-05T13:46:14.144Z,21.82
2022-08-05T13:48:57.875Z,21.63
2022-08-05T13:51:29.668Z,21.78
2022-08-05T13:54:12.473Z,21.43
2022-08-05T13:56:45.398Z,21.10
2022-08-05T13:59:26.879Z,21.22
2022-08-05T14:01:58.708Z,21.15
2022-08-05T14:04:49.694Z,21.26
2022-08-05T14:07:59.657Z,21.22
2022-08-05T14:10:19.207Z,21.36
2022-08-05T14:12:57.117Z,20.89
2022-08-05T14:16:04.664Z,20.90
2022-08-05T14:18:17.467Z,20.50
2022-08-05T14:20:48.124Z,20.45
2022-08-05T14:23:23.858Z,20.74
2022-08-05T14:25:58.436Z,20.62
2022-08-05T14:28:28.672Z,20.45
2022-08-05T14:31:00.605Z,20.56
2022-08-05T14:33:32.687Z,20.54
2022-08-05T14:36:21.373Z,20.43
2022-08-05T14:38:50.026Z,20.41
2022-08-05T14:41:18.654Z,20.44
2022-08-05T14:44:01.645Z,20.46
2022-08-05T14:46:35.304Z,20.07
2022-08-05T14:49:07.200Z,20.18
2022-08-05T14:51:38.113Z,19.51
2022-08-05T14:54:29.983Z,19.64
2022-08-05T14:56:55.780Z,19.01
2022-08-05T14:59:23.697Z,18.92
2022-08-05T15:01:51.529Z,18.26
2022-08-05T15:04:22.435Z,18.19
2022-08-05T15:06:51.130Z,18.33
2022-08-05T15:09:51.374Z,18.13
2022-08-05T15:12:17.042Z,18.18
2022-08-05T15:14:50.325Z,17.65
2022-08-05T15:17:46.896Z,17.54
2022-08-05T15:20:15.589Z,17.66
2022-08-05T15:22:54.029Z,17.47
2022-08-05T15:25:50.910Z,17.28
2022-08-05T15:28:14.867Z,17.29
2022-08-05T15:30:45.750Z,17.13
2022-08-05T15:34:18.917Z,16.90
2022-08-05T15:36:05.101Z,17.01
2022-08-05T15:38:41.832Z,16.91
2022-08-05T15:41:23.188Z,17.11
2022-08-05T15:43:54.718Z,17.11
2022-08-05T15:46:24.734Z,17.06
2022-08-05T15:49:00.936Z,17.02
2022-08-05T15:52:09.950Z,16.91
2022-08-05T15:54:35.026Z,17.02
2022-08-05T15:57:07.337Z,16.88
2022-08-05T15:59:36.602Z,17.16
2022-08-05T16:02:09.571Z,17.12
2022-08-05T16:04:43.463Z,17.38
2022-08-05T16:07:12.102Z,17.38
2022-08-05T16:09:43.477Z,17.59
2022-08-05T16:12:11.695Z,17.52
2022-08-05T16:14:39.950Z,17.41
2022-08-05T16:17:07.740Z,17.56
2022-08-05T16:20:05.576Z,17.50
2022-08-05T16:22:27.728Z,17.51
2022-08-05T16:25:08.052Z,17.37
2022-08-05T16:28:00.116Z,17.38
2022-08-05T16:30:28.824Z,17.72
2022-08-05T16:33:00.993Z,17.62
2022-08-05T16:35:32.055Z,17.94
2022-08-05T16:38:24.606Z,18.11
2022-08-05T16:40:55.097Z,18.49
2022-08-05T16:43:30.205Z,18.68
2022-08-05T16:46:05.379Z,18.76
2022-08-05T16:48:38.457Z,19.01
2022-08-05T16:51:09.692Z,18.91
2022-08-05T16:54:02.437Z,19.14
2022-08-05T16:56:30.145Z,19.51
2022-08-05T16:58:58.363Z,19.58
2022-08-05T17:01:26.672Z,19.89
2022-08-05T17:03:54.387Z,20.19
2022-08-05T17:06:24.689Z,20.09
2022-08-05T17:08:54.315Z,20.60
2022-08-05T17:11:23.756Z,20.98
2022-08-05T17:14:00.182Z,21.50
2022-08-05T17:16:36.821Z,21.90
2022-08-05T17:19:07.642Z,22.28
2022-08-05T17:21:39.683Z,22.82
2022-08-05T17:24:19.554Z,23.26
2022-08-05T17:26:58.241Z,23.58
2022-08-05T17:29:33.098Z,23.83
2022-08-05T17:32:16.754Z,24.47
2022-08-05T17:34:48.147Z,24.88
2022-08-05T17:37:40.340Z,25.34
2022-08-05T17:40:14.429Z,25.85
2022-08-05T17:42:50.996Z,26.12
2022-08-05T17:45:22.174Z,26.62
2022-08-05T17:47:55.114Z,27.15
2022-08-05T17:50:28.637Z,27.66
2022-08-05T17:53:00.023Z,27.94
2022-08-05T17:55:38.425Z,28.17
2022-08-05T17:58:11.215Z,28.62
2022-08-05T18:00:44.935Z,28.93
2022-08-05T18:03:48.434Z,29.27
2022-08-05T18:06:11.005Z,29.67
2022-08-05T18:08:44.593Z,29.98
2022-08-05T18:11:24.349Z,30.40
2022-08-05T18:13:57.467Z,30.93
2022-08-05T18:16:27.606Z,31.17
2022-08-05T18:18:55.273Z,31.47
2022-08-05T18:21:26.026Z,31.83
2022-08-05T18:23:55.877Z,32.19
2022-08-05T18:26:27.732Z,32.68
2022-08-05T18:28:59.976Z,33.05
2022-08-05T18:31:33.020Z,33.38
2022-08-05T18:34:05.746Z,33.72
2022-08-05T18:36:35.393Z,33.97
2022-08-05T18:39:22.428Z,34.17
2022-08-05T18:42:01.833Z,34.59
2022-08-05T18:44:35.476Z,35.01
2022-08-05T18:47:17.290Z,35.45
2022-08-05T18:50:00.869Z,35.80
2022-08-05T18:52:50.913Z,36.08
2022-08-05T18:55:21.549Z,36.51
2022-08-05T18:57:53.232Z,36.42
2022-08-05T19:00:27.234Z,36.83
2022-08-05T19:03:03.697Z,37.06
2022-08-05T19:06:11.088Z,36.88
2022-08-05T19:08:30.733Z,37.38
2022-08-05T19:10:59.680Z,37.74
2022-08-05T19:13:36.043Z,38.01
2022-08-05T19:16:25.394Z,38.23
2022-08-05T19:18:56.588Z,38.57
2022-08-05T19:21:29.422Z,38.69
2022-08-05T19:24:06.524Z,39.18
2022-08-05T19:26:43.774Z,39.22
2022-08-05T19:29:36.015Z,39.86
2022-08-05T19:32:08.673Z,39.87
2022-08-05T19:34:39.692Z,40.07
2022-08-05T19:37:09.916Z,40.36
2022-08-05T19:39:47.740Z,40.86
2022-08-05T19:42:35.002Z,41.10
2022-08-05T19:45:05.624Z,41.46
2022-08-05T19:47:37.149Z,41.58
2022-08-05T19:50:07.791Z,42.05
2022-08-05T19:52:40.080Z,42.13
2022-08-05T19:56:12.476Z,42.52
2022-08-05T19:58:10.364Z,42.92
2022-08-05T20:00:44.082Z,43.08
2022-08-05T20:03:11.868Z,43.30
2022-08-05T20:05:43.269Z,43.38
2022-08-05T20:08:18.697Z,43.66
2022-08-05T20:10:49.339Z,43.96
2022-08-05T20:13:18.017Z,43.97
2022-08-05T20:15:58.086Z,44.56
2022-08-05T20:18:33.747Z,44.57
2022-08-05T20:21:06.744Z,44.83
2022-08-05T20:23:39.930Z,44.85
2022-08-05T20:26:24.815Z,45.02
2022-08-05T20:28:56.402Z,45.28
2022-08-05T20:31:36.988Z,45.38
2022-08-05T20:34:12.524Z,45.69
2022-08-05T20:36:43.418Z,45.67
2022-08-05T20:39:16.220Z,45.95
2022-08-05T20:41:47.747Z,46.04
2022-08-05T20:44:29.424Z,45.90
2022-08-05T20:47:01.438Z,45.98
2022-08-05T20:49:29.101Z,46.15
2022-08-05T20:51:58.029Z,46.50
2022-08-05T20:54:43.025Z,46.50
2022-08-05T20:57:14.363Z,46.83
2022-08-05T20:59:46.329Z,47.02
2022-08-05T21:02:29.847Z,47.28
2022-08-05T21:04:57.418Z,47.15
2022-08-05T21:07:25.140Z,47.37
2022-08-05T21:10:13.776Z,47.91
2022-08-05T21:12:41.481Z,48.15
2022-08-05T21:15:26.253Z,49.34
2022-08-05T21:18:01.845Z,48.76
2022-08-05T21:20:32.811Z,48.84
2022-08-05T21:23:01.387Z,49.21
2022-08-05T21:25:33.674Z,49.44
2022-08-05T21:28:03.104Z,49.60
2022-08-05T21:30:31.607Z,49.74
2022-08-05T21:32:59.811Z,49.87
2022-08-05T21:35:55.457Z,50.01
2022-08-05T21:38:19.123Z,50.24
2022-08-05T21:40:46.824Z,50.27
2022-08-05T21:43:17.873Z,50.46
2022-08-05T21:45:57.614Z,50.79
2022-08-05T21:48:28.850Z,50.75
2022-08-05T21:50:57.178Z,50.86
2022-08-05T21:53:27.196Z,50.93
2022-08-05T21:56:06.574Z,51.70
2022-08-05T21:58:48.271Z,51.37
2022-08-05T22:01:26.716Z,51.50
2022-08-05T22:03:54.431Z,51.43
2022-08-05T22:06:34.769Z,51.94
2022-08-05T22:09:13.805Z,52.20
2022-08-05T22:11:46.775Z,52.37
2022-08-05T22:14:37.460Z,52.67
2022-08-05T22:17:06.819Z,54.00
2022-08-05T22:20:02.225Z,54.31
2022-08-05T22:22:27.093Z,55.33
2022-08-05T22:25:18.090Z,56.19
2022-08-05T22:28:09.298Z,56.44
2022-08-05T22:30:55.668Z,55.48
2022-08-05T22:33:57.633Z,55.46
2022-08-05T22:36:16.687Z,55.86
2022-08-05T22:38:48.661Z,56.33
2022-08-05T22:41:26.493Z,58.08
2022-08-05T22:44:07.820Z,57.42
2022-08-05T22:46:40.011Z,57.31
2022-08-05T22:49:12.506Z,57.59
2022-08-05T22:52:04.395Z,58.08
2022-08-05T22:54:36.092Z,59.25
2022-08-05T22:57:05.863Z,58.17
2022-08-05T22:59:45.895Z,57.35
2022-08-05T23:02:18.097Z,57.19
2022-08-05T23:04:52.147Z,56.96
2022-08-05T23:07:21.717Z,56.84
2022-08-05T23:09:57.977Z,57.26
2022-08-05T23:12:32.566Z,57.42
2022-08-05T23:15:03.398Z,57.56
2022-08-05T23:17:37.225Z,58.06
2022-08-05T23:20:15.553Z,58.03
2022-08-05T23:22:47.595Z,58.81
2022-08-05T23:25:53.008Z,59.75
2022-08-05T23:28:07.084Z,60.95
2022-08-05T23:30:40.175Z,61.99
2022-08-05T23:33:22.334Z,62.27
2022-08-05T23:35:55.094Z,61.91
2022-08-05T23:38:26.052Z,64.28
2022-08-05T23:40:54.441Z,63.89
2022-08-05T23:43:25.572Z,63.17
2022-08-05T23:46:20.117Z,63.34
2022-08-05T23:49:00.941Z,63.48
2022-08-05T23:51:53.732Z,63.51
2022-08-05T23:54:30.467Z,64.34
2022-08-05T23:57:03.712Z,64.12
